Time;durP1;ratioP1;P1;durP2;ratioP2;P2;SDS_P1;SDS_P2;PMS_P1;PMS_P2;Temp;Humidity;BMP_temperature;BMP_pressure;BME280_temperature;BME280_humidity;BME280_pressure;Samples;Min_cycle;Max_cycle;Signal;HPM_P1;HPM_P2
2024/04/04 00:02:14;;;;;;;9.57;6.13;;;9.80;99.90;;;;;;4917645;29;20028;-79
2024/04/04 00:04:40;;;;;;;8.65;6.90;;;9.80;99.90;;;;;;4916471;29;20043;-78
2024/04/04 00:07:06;;;;;;;9.68;6.78;;;9.80;99.90;;;;;;4916200;29;20032;-78
2024/04/04 00:09:32;;;;;;;12.57;7.20;;;9.70;99.90;;;;;;4917302;29;20080;-79
2024/04/04 00:11:57;;;;;;;9.07;6.50;;;9.70;99.90;;;;;;4917440;29;20513;-78
2024/04/04 00:14:23;;;;;;;9.20;6.72;;;9.80;99.90;;;;;;4915944;29;20132;-79
2024/04/04 00:16:49;;;;;;;9.73;7.03;;;9.80;99.90;;;;;;4916073;29;20024;-79
2024/04/04 00:19:14;;;;;;;9.60;6.45;;;9.80;99.90;;;;;;4916303;29;20017;-79
2024/04/04 00:21:40;;;;;;;14.00;7.22;;;9.80;99.90;;;;;;4916032;29;20032;-79
2024/04/04 00:24:06;;;;;;;9.45;7.05;;;9.70;99.90;;;;;;4916718;29;20064;-79
2024/04/04 00:26:32;;;;;;;9.57;7.65;;;9.70;99.90;;;;;;4915812;29;20028;-79
2024/04/04 00:28:57;;;;;;;12.13;7.22;;;9.70;99.90;;;;;;4916887;29;20099;-79
2024/04/04 00:31:23;;;;;;;16.88;7.88;;;9.70;99.90;;;;;;4916170;29;20099;-79
2024/04/04 00:33:48;;;;;;;11.13;7.55;;;9.70;99.90;;;;;;4915790;29;20572;-78
2024/04/04 00:36:14;;;;;;;13.38;7.10;;;9.70;99.90;;;;;;4915694;29;20112;-79
2024/04/04 00:38:40;;;;;;;13.38;8.68;;;9.70;99.90;;;;;;4915381;29;20055;-79
2024/04/04 00:41:05;;;;;;;11.63;7.15;;;9.70;99.90;;;;;;4915593;29;20521;-79
2024/04/04 00:43:31;;;;;;;14.32;7.55;;;9.70;99.90;;;;;;4917092;29;20040;-79
2024/04/04 00:45:57;;;;;;;11.80;7.57;;;9.70;99.90;;;;;;4915147;29;20181;-78
2024/04/04 00:48:24;;;;;;;12.18;8.00;;;9.80;99.90;;;;;;4916627;29;20039;-78
2024/04/04 00:50:52;;;;;;;10.15;7.38;;;9.70;99.90;;;;;;4915187;29;20398;-78
2024/04/04 00:53:19;;;;;;;13.77;8.70;;;9.80;99.90;;;;;;4915020;29;20450;-78
2024/04/04 00:55:46;;;;;;;11.40;7.97;;;9.80;99.90;;;;;;4916461;29;20378;-79
2024/04/04 00:58:12;;;;;;;16.50;9.25;;;9.80;99.90;;;;;;4915521;29;20028;-77
2024/04/04 01:00:38;;;;;;;13.88;9.00;;;9.80;99.90;;;;;;4915088;29;20032;-78
2024/04/04 01:03:04;;;;;;;13.23;9.15;;;9.80;99.90;;;;;;4915816;29;20549;-77
2024/04/04 01:05:29;;;;;;;12.63;8.82;;;9.80;99.90;;;;;;4916169;29;20390;-77
2024/04/04 01:07:55;;;;;;;14.15;9.02;;;9.80;99.90;;;;;;4914994;29;20032;-76
2024/04/04 01:10:21;;;;;;;13.27;8.82;;;9.80;99.90;;;;;;4915680;29;20024;-76
2024/04/04 01:12:47;;;;;;;13.68;8.25;;;9.80;99.90;;;;;;4915801;29;20095;-76
2024/04/04 01:15:12;;;;;;;12.20;7.93;;;9.80;99.90;;;;;;4916288;29;20501;-76
2024/04/04 01:17:38;;;;;;;10.27;7.80;;;9.80;99.90;;;;;;4916022;29;20035;-76
2024/04/04 01:20:04;;;;;;;10.32;7.30;;;9.80;99.90;;;;;;4916297;29;20044;-77
2024/04/04 01:22:30;;;;;;;11.60;8.27;;;9.80;99.90;;;;;;4910667;29;20024;-77
2024/04/04 01:24:56;;;;;;;13.88;8.10;;;9.80;99.90;;;;;;4906975;29;20036;-77
2024/04/04 01:27:21;;;;;;;13.30;7.85;;;9.80;99.90;;;;;;4914443;29;20033;-77
2024/04/04 01:29:47;;;;;;;16.55;7.93;;;9.80;99.90;;;;;;4915966;29;20020;-77
2024/04/04 01:32:12;;;;;;;10.57;8.07;;;9.80;99.90;;;;;;4915715;29;20047;-77
2024/04/04 01:34:38;;;;;;;13.05;7.88;;;9.70;99.90;;;;;;4914644;29;20494;-77
2024/04/04 01:37:04;;;;;;;15.43;9.43;;;9.80;99.90;;;;;;4914817;29;20032;-76
2024/04/04 01:39:29;;;;;;;11.63;9.30;;;9.70;99.90;;;;;;4914510;29;20040;-77
2024/04/04 01:41:55;;;;;;;15.00;9.25;;;9.70;99.90;;;;;;4915968;29;20475;-76
2024/04/04 01:44:22;;;;;;;15.88;9.38;;;9.70;99.90;;;;;;4915074;29;20061;-78
2024/04/04 01:46:48;;;;;;;12.45;8.57;;;9.70;99.90;;;;;;4915199;29;20134;-78
2024/04/04 01:49:18;;;;;;;16.42;10.55;;;9.70;99.90;;;;;;4912565;29;20063;-77
2024/04/04 01:51:44;;;;;;;14.57;10.55;;;9.70;99.90;;;;;;4915565;29;20029;-77
2024/04/04 01:54:14;;;;;;;17.50;10.43;;;9.70;99.90;;;;;;4915669;29;20043;-77
2024/04/04 01:56:40;;;;;;;14.00;9.68;;;9.70;99.90;;;;;;4915583;29;20055;-77
2024/04/04 01:59:06;;;;;;;17.33;9.32;;;9.60;99.90;;;;;;4915694;29;20044;-76
2024/04/04 02:01:31;;;;;;;12.80;8.85;;;9.60;99.90;;;;;;4915470;29;20650;-77
2024/04/04 02:03:57;;;;;;;11.77;8.10;;;9.60;99.90;;;;;;4914438;29;20087;-78
2024/04/04 02:06:24;;;;;;;12.52;8.73;;;9.60;99.90;;;;;;4915379;29;20043;-77
2024/04/04 02:08:49;;;;;;;13.20;8.57;;;9.60;99.90;;;;;;4914320;29;20066;-77
2024/04/04 02:11:15;;;;;;;14.43;10.07;;;9.60;99.90;;;;;;4914142;29;20052;-76
2024/04/04 02:13:41;;;;;;;12.15;9.30;;;9.60;99.90;;;;;;4915959;29;20047;-76
2024/04/04 02:16:08;;;;;;;13.15;9.27;;;9.60;99.90;;;;;;4913982;29;20502;-78
2024/04/04 02:18:34;;;;;;;14.70;9.95;;;9.50;99.90;;;;;;4915318;29;20390;-78
2024/04/04 02:21:00;;;;;;;14.55;10.18;;;9.60;99.90;;;;;;4909878;29;20039;-76
2024/04/04 02:23:27;;;;;;;16.05;10.18;;;9.60;99.90;;;;;;4915413;29;20024;-77
2024/04/04 02:25:55;;;;;;;18.95;10.27;;;9.60;99.90;;;;;;4902769;29;20024;-77
2024/04/04 02:28:20;;;;;;;17.50;11.38;;;9.60;99.90;;;;;;4915928;29;20390;-77
2024/04/04 02:30:46;;;;;;;12.60;10.70;;;9.60;99.90;;;;;;4914914;29;20032;-77
2024/04/04 02:33:12;;;;;;;12.32;9.07;;;9.60;99.90;;;;;;4915427;29;20040;-76
2024/04/04 02:35:37;;;;;;;14.07;9.30;;;9.60;99.90;;;;;;4913928;29;20394;-76
2024/04/04 02:38:03;;;;;;;15.07;9.27;;;9.60;99.90;;;;;;4914098;29;20040;-76
2024/04/04 02:40:29;;;;;;;12.00;8.75;;;9.60;99.90;;;;;;4919059;29;20028;-76
2024/04/04 02:42:54;;;;;;;15.95;9.80;;;9.60;99.90;;;;;;4914307;29;20033;-77
2024/04/04 02:45:22;;;;;;;12.25;8.82;;;9.60;99.90;;;;;;4913963;29;20040;-77
2024/04/04 02:47:48;;;;;;;12.70;8.95;;;9.60;99.90;;;;;;4917457;29;20391;-77
2024/04/04 02:50:14;;;;;;;13.00;8.75;;;9.60;99.90;;;;;;4916522;29;20115;-76
2024/04/04 02:52:39;;;;;;;14.38;9.70;;;9.60;99.90;;;;;;4917864;29;20139;-76
2024/04/04 02:55:05;;;;;;;16.38;9.65;;;9.60;99.90;;;;;;4917354;29;20040;-76
2024/04/04 02:57:31;;;;;;;14.48;9.45;;;9.60;99.90;;;;;;4916058;29;20485;-78
2024/04/04 02:59:57;;;;;;;13.75;9.60;;;9.60;99.90;;;;;;4917031;29;20059;-77
2024/04/04 03:02:22;;;;;;;15.15;10.00;;;9.50;99.90;;;;;;4917573;29;20490;-77
2024/04/04 03:04:48;;;;;;;14.60;9.57;;;9.50;99.90;;;;;;4917216;29;20020;-77
2024/04/04 03:07:14;;;;;;;14.93;9.85;;;9.50;99.90;;;;;;4919406;29;20378;-77
2024/04/04 03:09:39;;;;;;;14.93;10.70;;;9.50;99.90;;;;;;4918480;29;20036;-76
2024/04/04 03:12:05;;;;;;;15.38;10.73;;;9.50;99.90;;;;;;4918576;29;20037;-77
2024/04/04 03:14:31;;;;;;;14.25;10.52;;;9.50;99.90;;;;;;4916288;29;20028;-77
2024/04/04 03:16:57;;;;;;;15.65;10.43;;;9.40;99.90;;;;;;4918229;29;20031;-77
2024/04/04 03:19:22;;;;;;;17.45;10.25;;;9.40;99.90;;;;;;4917647;29;20020;-76
2024/04/04 03:21:48;;;;;;;16.10;11.65;;;9.40;99.90;;;;;;4908228;29;20044;-77
2024/04/04 03:24:14;;;;;;;16.95;11.30;;;9.40;99.90;;;;;;4918156;29;20064;-77
2024/04/04 03:26:39;;;;;;;16.10;10.55;;;9.40;99.90;;;;;;4916488;29;20154;-76
2024/04/04 03:29:05;;;;;;;16.92;11.45;;;9.40;99.90;;;;;;4918315;29;20032;-77
2024/04/04 03:31:31;;;;;;;19.00;11.23;;;9.40;99.90;;;;;;4916727;29;20035;-76
2024/04/04 03:33:57;;;;;;;16.80;10.80;;;9.40;99.90;;;;;;4916920;29;20048;-76
2024/04/04 03:36:22;;;;;;;19.42;12.40;;;9.30;99.90;;;;;;4917944;29;20039;-76
2024/04/04 03:38:48;;;;;;;16.77;11.48;;;9.30;99.90;;;;;;4916852;29;20088;-76
2024/04/04 03:41:13;;;;;;;18.60;11.80;;;9.20;99.90;;;;;;4917721;29;20024;-77
2024/04/04 03:43:39;;;;;;;14.75;11.75;;;9.30;99.90;;;;;;4918392;29;20063;-77
2024/04/04 03:46:05;;;;;;;18.02;15.60;;;9.30;99.90;;;;;;4917506;29;20041;-77
2024/04/04 03:48:33;;;;;;;21.10;14.18;;;9.30;99.90;;;;;;4917105;29;20032;-78
2024/04/04 03:50:59;;;;;;;20.08;14.32;;;9.30;99.90;;;;;;4916002;29;20040;-77
2024/04/04 03:53:25;;;;;;;17.70;12.77;;;9.30;99.90;;;;;;4916465;29;20032;-77
2024/04/04 03:55:50;;;;;;;18.08;12.63;;;9.30;99.90;;;;;;4917125;29;20056;-77
2024/04/04 03:58:18;;;;;;;18.42;12.77;;;9.30;99.90;;;;;;4918323;29;20028;-77
2024/04/04 04:00:43;;;;;;;17.63;12.30;;;9.30;99.90;;;;;;4915953;29;20028;-76
2024/04/04 04:03:09;;;;;;;18.88;12.35;;;9.30;99.90;;;;;;4917587;29;20039;-77
2024/04/04 04:05:35;;;;;;;18.60;12.57;;;9.20;99.90;;;;;;4915946;29;20032;-76
2024/04/04 04:08:00;;;;;;;17.42;11.48;;;9.20;99.90;;;;;;4916242;29;20509;-77
2024/04/04 04:10:30;;;;;;;19.63;12.63;;;9.20;99.90;;;;;;4917786;29;20410;-77
2024/04/04 04:12:57;;;;;;;20.33;13.40;;;9.20;99.90;;;;;;4915872;29;20153;-78
2024/04/04 04:15:23;;;;;;;22.73;13.40;;;9.20;99.90;;;;;;4915948;29;20044;-77
2024/04/04 04:17:48;;;;;;;19.05;11.75;;;9.20;99.90;;;;;;4917190;29;20386;-78
2024/04/04 04:22:58;;;;;;;18.13;11.93;;;9.20;99.90;;;;;;4909270;29;20050;-78
2024/04/04 04:25:24;;;;;;;18.92;11.15;;;9.20;99.90;;;;;;4915924;29;20016;-77
2024/04/04 04:27:51;;;;;;;20.67;11.38;;;9.20;99.90;;;;;;4916846;29;20058;-78
2024/04/04 04:30:16;;;;;;;15.73;11.00;;;9.20;99.90;;;;;;4916888;29;20111;-77
2024/04/04 04:32:42;;;;;;;19.92;10.55;;;9.20;99.90;;;;;;4916888;29;20538;-77
2024/04/04 04:35:08;;;;;;;19.75;11.85;;;9.30;99.90;;;;;;4915534;29;20032;-77
2024/04/04 04:37:34;;;;;;;18.60;11.20;;;9.30;99.90;;;;;;4916179;29;20026;-77
2024/04/04 04:40:00;;;;;;;33.30;17.20;;;9.20;99.90;;;;;;4916772;29;20032;-77
2024/04/04 04:42:26;;;;;;;25.38;16.10;;;9.20;99.90;;;;;;4916807;29;20028;-77
2024/04/04 04:44:51;;;;;;;31.65;15.75;;;9.10;99.90;;;;;;4915452;29;20024;-77
2024/04/04 04:47:17;;;;;;;26.05;16.33;;;9.10;99.90;;;;;;4914838;29;20036;-77
2024/04/04 04:49:43;;;;;;;34.85;19.63;;;9.10;99.90;;;;;;4914161;29;20031;-77
2024/04/04 04:52:09;;;;;;;42.47;20.50;;;9.10;99.90;;;;;;4915785;29;20067;-77
2024/04/04 04:54:35;;;;;;;39.28;20.27;;;9.10;99.90;;;;;;4915470;29;20071;-77
2024/04/04 04:57:01;;;;;;;46.35;25.45;;;9.10;99.90;;;;;;4914486;29;20040;-76
2024/04/04 04:59:27;;;;;;;44.47;22.80;;;9.20;99.90;;;;;;4914383;29;20033;-76
2024/04/04 05:01:53;;;;;;;40.88;23.13;;;9.10;99.90;;;;;;4914316;29;20032;-77
2024/04/04 05:04:20;;;;;;;43.03;22.88;;;9.10;99.90;;;;;;4914623;29;20029;-76
2024/04/04 05:06:46;;;;;;;47.90;25.98;;;9.10;99.90;;;;;;4915507;29;20072;-76
2024/04/04 05:09:13;;;;;;;50.03;27.17;;;9.10;99.90;;;;;;4912177;29;20150;-76
2024/04/04 05:11:39;;;;;;;41.42;23.95;;;9.10;99.90;;;;;;4913903;29;20028;-77
2024/04/04 05:14:04;;;;;;;41.85;22.92;;;9.10;99.90;;;;;;4911212;29;20123;-77
2024/04/04 05:16:30;;;;;;;36.15;21.25;;;9.10;99.90;;;;;;4915178;29;20095;-77
2024/04/04 05:18:56;;;;;;;43.13;23.90;;;9.10;99.90;;;;;;4911236;29;20036;-77
2024/04/04 05:21:22;;;;;;;34.20;19.83;;;9.20;99.90;;;;;;4910129;29;20047;-77
2024/04/04 05:23:47;;;;;;;35.63;20.88;;;9.30;99.90;;;;;;4914084;29;20032;-77
2024/04/04 05:26:13;;;;;;;31.48;19.17;;;9.30;99.90;;;;;;4913477;29;20479;-78
2024/04/04 05:28:39;;;;;;;98.97;27.50;;;9.40;99.90;;;;;;4914342;29;20035;-78
2024/04/04 05:31:05;;;;;;;41.40;17.13;;;9.40;99.90;;;;;;4915241;29;20486;-78
2024/04/04 05:33:30;;;;;;;32.75;16.00;;;9.40;99.90;;;;;;4913653;29;20755;-78
2024/04/04 05:35:56;;;;;;;29.95;17.52;;;9.50;99.90;;;;;;4914775;29;20039;-77
2024/04/04 05:38:22;;;;;;;50.03;16.63;;;9.60;99.90;;;;;;4913853;29;20558;-78
2024/04/04 05:40:48;;;;;;;21.13;14.70;;;9.60;99.90;;;;;;4912618;29;20553;-77
2024/04/04 05:43:13;;;;;;;21.40;13.57;;;9.60;99.90;;;;;;4913890;29;20036;-77
2024/04/04 05:45:39;;;;;;;27.42;15.38;;;9.70;99.90;;;;;;4911880;29;20036;-76
2024/04/04 05:48:05;;;;;;;24.67;13.20;;;9.70;99.90;;;;;;4867132;29;1242839;-76
2024/04/04 05:50:31;;;;;;;24.02;14.38;;;9.80;99.90;;;;;;4914089;29;20028;-76
2024/04/04 05:52:56;;;;;;;22.13;12.73;;;9.90;99.90;;;;;;4913803;29;20046;-76
2024/04/04 05:55:22;;;;;;;23.63;13.27;;;10.00;99.90;;;;;;4914905;29;20020;-76
2024/04/04 05:57:49;;;;;;;21.17;12.38;;;10.10;99.90;;;;;;4906141;29;20036;-76
2024/04/04 06:00:15;;;;;;;23.15;13.30;;;10.10;99.90;;;;;;4915376;29;20079;-77
2024/04/04 06:02:41;;;;;;;22.50;13.10;;;10.20;99.90;;;;;;4912975;29;20043;-76
2024/04/04 06:05:07;;;;;;;19.50;11.40;;;10.30;99.90;;;;;;4914490;29;20413;-76
2024/04/04 06:07:33;;;;;;;20.60;12.25;;;10.40;99.90;;;;;;4914490;29;20115;-76
2024/04/04 06:09:59;;;;;;;20.25;12.93;;;10.50;99.90;;;;;;4914172;29;20032;-76
2024/04/04 06:12:25;;;;;;;19.15;13.43;;;10.60;99.90;;;;;;4906079;29;20051;-76
2024/04/04 06:14:51;;;;;;;23.38;13.18;;;10.70;99.90;;;;;;4908506;29;20413;-76
2024/04/04 06:17:16;;;;;;;21.27;12.05;;;10.70;99.90;;;;;;4911808;29;20079;-77
2024/04/04 06:19:42;;;;;;;18.30;10.85;;;10.90;99.90;;;;;;4910438;29;20032;-77
2024/04/04 06:22:08;;;;;;;24.58;11.88;;;10.90;99.90;;;;;;4914829;29;20043;-77
2024/04/04 06:24:34;;;;;;;19.70;9.77;;;11.10;99.90;;;;;;4915616;29;20032;-78
2024/04/04 06:27:00;;;;;;;17.02;9.40;;;11.20;99.90;;;;;;4914125;29;20059;-76
2024/04/04 06:29:25;;;;;;;14.02;6.82;;;11.30;99.90;;;;;;4914260;29;20119;-76
2024/04/04 06:31:51;;;;;;;12.95;6.70;;;11.40;99.90;;;;;;4915820;29;20055;-77
2024/04/04 06:34:17;;;;;;;19.30;6.50;;;11.50;99.90;;;;;;4917613;29;20106;-77
2024/04/04 06:36:43;;;;;;;8.13;6.40;;;11.60;99.90;;;;;;4917799;29;20031;-76
2024/04/04 06:39:10;;;;;;;11.27;6.40;;;11.70;99.90;;;;;;4917822;29;20040;-77
2024/04/04 06:41:36;;;;;;;10.60;5.40;;;11.80;99.90;;;;;;4917240;29;20227;-77
2024/04/04 06:44:02;;;;;;;11.13;5.88;;;11.90;99.90;;;;;;4917097;29;20546;-77
2024/04/04 06:46:27;;;;;;;8.63;5.50;;;12.00;99.90;;;;;;4918492;29;20043;-77
2024/04/04 06:48:53;;;;;;;9.23;5.78;;;12.10;99.90;;;;;;4916573;29;20048;-77
2024/04/04 06:51:19;;;;;;;73.88;12.43;;;12.20;99.90;;;;;;4915813;29;20032;-77
2024/04/04 06:53:44;;;;;;;10.50;5.57;;;12.20;99.90;;;;;;4916720;29;20524;-76
2024/04/04 06:56:10;;;;;;;11.48;4.72;;;12.30;99.90;;;;;;4918312;29;20028;-77
2024/04/04 06:58:36;;;;;;;7.78;5.00;;;12.40;99.90;;;;;;4918556;29;20028;-77
2024/04/04 07:01:01;;;;;;;7.18;4.80;;;12.50;99.90;;;;;;4918034;29;20040;-78
2024/04/04 07:03:27;;;;;;;8.88;4.10;;;12.50;99.90;;;;;;4917363;29;20057;-77
2024/04/04 07:05:53;;;;;;;6.38;4.03;;;12.70;99.90;;;;;;4910026;29;20036;-76
2024/04/04 07:08:19;;;;;;;7.45;4.57;;;12.90;99.90;;;;;;4917326;29;20087;-77
2024/04/04 07:10:45;;;;;;;7.15;3.90;;;12.90;99.90;;;;;;4915211;29;20036;-77
2024/04/04 07:13:13;;;;;;;7.90;3.67;;;13.10;99.90;;;;;;4918682;29;20039;-77
2024/04/04 07:15:38;;;;;;;5.97;4.32;;;13.10;99.90;;;;;;4916871;29;20020;-78
2024/04/04 07:18:09;;;;;;;7.03;4.40;;;13.10;99.90;;;;;;4916190;29;20038;-78
2024/04/04 07:20:39;;;;;;;7.35;5.13;;;13.30;99.90;;;;;;4915813;29;20028;-77
2024/04/04 07:23:05;;;;;;;11.13;4.20;;;13.50;99.90;;;;;;4912098;29;20442;-77
2024/04/04 07:25:32;;;;;;;7.82;5.15;;;13.50;97.90;;;;;;4918524;29;20075;-77
2024/04/04 07:27:58;;;;;;;9.50;4.07;;;13.40;94.90;;;;;;4916072;29;20070;-77
2024/04/04 07:30:24;;;;;;;5.97;3.90;;;13.60;96.40;;;;;;4917751;29;20040;-77
2024/04/04 07:32:49;;;;;;;3.78;3.00;;;13.60;92.90;;;;;;4918165;29;20048;-77
2024/04/04 07:35:15;;;;;;;6.38;3.55;;;13.70;91.70;;;;;;4916478;29;20084;-76
2024/04/04 07:37:41;;;;;;;3.47;3.10;;;13.70;88.90;;;;;;4917010;29;20028;-77
2024/04/04 07:40:07;;;;;;;8.25;3.22;;;13.90;90.10;;;;;;4905762;29;20123;-77
2024/04/04 07:42:34;;;;;;;3.28;2.25;;;13.80;89.10;;;;;;4917893;29;20032;-77
2024/04/04 07:44:59;;;;;;;3.35;2.45;;;13.80;86.80;;;;;;4916228;29;20127;-76
2024/04/04 07:47:26;;;;;;;2.30;1.98;;;13.80;84.70;;;;;;4916336;29;20123;-77
2024/04/04 07:49:52;;;;;;;10.05;2.80;;;14.00;87.20;;;;;;4915472;29;20066;-77
2024/04/04 07:52:19;;;;;;;24.77;6.35;;;13.90;85.40;;;;;;4907842;29;20099;-77
2024/04/04 07:54:45;;;;;;;17.52;4.07;;;14.00;85.30;;;;;;4912118;29;20060;-77
2024/04/04 07:57:11;;;;;;;6.63;2.80;;;14.00;82.20;;;;;;4915918;29;20055;-76
2024/04/04 07:59:38;;;;;;;10.13;3.58;;;14.10;80.50;;;;;;4901305;29;20029;-77
2024/04/04 08:02:05;;;;;;;4.35;2.58;;;14.20;81.20;;;;;;4915603;29;20405;-77
2024/04/04 08:04:31;;;;;;;3.90;2.55;;;14.20;78.50;;;;;;4916046;29;20021;-77
2024/04/04 08:06:57;;;;;;;4.13;2.50;;;14.30;79.20;;;;;;4916131;29;20040;-77
2024/04/04 08:09:23;;;;;;;4.70;2.58;;;14.30;78.00;;;;;;4916112;29;20032;-77
2024/04/04 08:11:49;;;;;;;3.17;2.17;;;14.20;76.40;;;;;;4915058;29;20119;-77
2024/04/04 08:14:16;;;;;;;3.75;2.40;;;14.30;77.40;;;;;;4913851;29;20538;-78
2024/04/04 08:16:42;;;;;;;4.05;2.10;;;14.60;79.80;;;;;;4915937;29;20047;-77
2024/04/04 08:19:08;;;;;;;2.45;1.70;;;14.50;76.70;;;;;;4913044;29;20084;-76
2024/04/04 08:21:34;;;;;;;4.13;2.03;;;14.20;73.80;;;;;;4912801;29;20560;-78
2024/04/04 08:23:59;;;;;;;2.60;2.15;;;14.20;75.60;;;;;;4913824;29;20032;-77
2024/04/04 08:26:25;;;;;;;3.80;2.03;;;14.30;75.00;;;;;;4914010;29;20103;-77
2024/04/04 08:28:51;;;;;;;3.58;1.95;;;14.40;74.10;;;;;;4915405;29;20201;-77
2024/04/04 08:31:17;;;;;;;39.50;34.88;;;14.60;77.20;;;;;;4916990;29;20466;-77
2024/04/04 08:33:43;;;;;;;3.25;1.98;;;14.70;75.30;;;;;;4916798;29;20040;-77
2024/04/04 08:36:09;;;;;;;2.03;1.48;;;14.60;73.00;;;;;;4916546;29;20046;-77
2024/04/04 08:38:35;;;;;;;5.90;2.60;;;14.40;72.20;;;;;;4915983;29;20031;-78
2024/04/04 08:41:09;;;;;;;2.58;1.83;;;14.40;74.30;;;;;;4915401;29;20032;-77
2024/04/04 08:43:36;;;;;;;3.55;2.05;;;14.60;75.10;;;;;;4915423;29;20567;-77
2024/04/04 08:46:06;;;;;;;2.35;1.88;;;14.40;74.60;;;;;;4916104;29;20036;-77
2024/04/04 08:48:32;;;;;;;3.72;2.35;;;14.60;74.70;;;;;;4915755;29;20052;-77
2024/04/04 08:50:58;;;;;;;5.93;3.40;;;14.70;74.70;;;;;;4912757;29;20510;-76
2024/04/04 08:53:27;;;;;;;5.05;3.40;;;14.40;72.90;;;;;;4905708;29;20062;-77
2024/04/04 08:55:54;;;;;;;20.50;13.65;;;14.50;74.10;;;;;;4914561;29;20496;-77
2024/04/04 08:58:22;;;;;;;18.92;12.93;;;14.40;72.40;;;;;;4910970;29;20478;-77
2024/04/04 09:00:49;;;;;;;13.25;8.45;;;14.30;74.30;;;;;;4914975;29;20116;-77
2024/04/04 09:03:15;;;;;;;17.75;11.45;;;14.00;73.90;;;;;;4914941;29;20029;-78
2024/04/04 09:05:45;;;;;;;12.73;5.72;;;13.80;74.60;;;;;;4914841;29;20069;-77
2024/04/04 09:08:11;;;;;;;17.40;6.82;;;13.70;73.60;;;;;;4916235;29;20028;-77
2024/04/04 09:10:37;;;;;;;7.32;3.15;;;14.10;74.10;;;;;;4914479;29;20143;-77
2024/04/04 09:13:06;;;;;;;8.10;3.85;;;14.50;73.90;;;;;;4914968;29;20169;-78
2024/04/04 09:15:32;;;;;;;2.78;1.90;;;14.60;71.50;;;;;;4914601;29;20055;-77
2024/04/04 09:18:05;;;;;;;3.08;1.58;;;14.60;70.30;;;;;;4914834;29;20047;-77
2024/04/04 09:20:39;;;;;;;2.97;2.28;;;14.70;71.50;;;;;;4914527;29;20024;-77
2024/04/04 09:23:06;;;;;;;6.50;2.97;;;14.80;70.50;;;;;;4915902;29;20386;-78
2024/04/04 09:25:33;;;;;;;3.33;2.17;;;15.10;69.90;;;;;;4916662;29;20012;-77
2024/04/04 09:28:00;;;;;;;3.13;1.55;;;15.40;69.60;;;;;;4914613;29;20028;-77
2024/04/04 09:30:29;;;;;;;1.10;0.95;;;15.60;68.70;;;;;;4914648;29;20040;-77
2024/04/04 09:32:55;;;;;;;1.17;1.10;;;15.90;68.80;;;;;;4914550;29;20096;-77
2024/04/04 09:35:21;;;;;;;1.05;0.90;;;16.10;67.00;;;;;;4914345;29;20036;-77
2024/04/04 09:37:51;;;;;;;1.60;1.08;;;15.90;65.60;;;;;;4914831;29;20038;-77
2024/04/04 09:40:17;;;;;;;8.32;2.50;;;15.80;65.20;;;;;;4904827;29;20402;-78
2024/04/04 09:42:44;;;;;;;1.30;0.98;;;15.80;66.40;;;;;;4915312;29;20537;-77
2024/04/04 09:45:15;;;;;;;6.13;1.55;;;15.40;65.60;;;;;;4915860;29;20059;-77
2024/04/04 09:47:45;;;;;;;6.10;3.25;;;15.30;66.40;;;;;;4914084;29;20067;-77
2024/04/04 09:50:13;;;;;;;6.32;3.83;;;15.10;67.40;;;;;;4914431;29;20549;-78
2024/04/04 09:52:39;;;;;;;6.10;4.55;;;14.90;68.10;;;;;;4912098;29;20095;-77
2024/04/04 09:55:17;;;;;;;2.83;2.30;;;14.90;68.70;;;;;;4913645;29;20040;-77
2024/04/04 09:57:43;;;;;;;1.77;1.02;;;15.00;70.50;;;;;;4913174;29;20036;-77
2024/04/04 10:00:14;;;;;;;6.25;1.80;;;14.80;69.10;;;;;;4915126;29;20032;-77
2024/04/04 10:02:46;;;;;;;2.53;1.25;;;14.70;69.00;;;;;;4913491;29;20512;-78
2024/04/04 10:05:20;;;;;;;2.30;1.42;;;14.60;69.50;;;;;;4914494;29;20434;-77
2024/04/04 10:07:50;;;;;;;3.05;2.17;;;14.60;70.80;;;;;;4914082;29;20165;-77
2024/04/04 10:10:26;;;;;;;2.00;0.85;;;14.60;70.20;;;;;;4915224;29;20024;-78
2024/04/04 10:12:53;;;;;;;3.00;1.05;;;14.70;70.90;;;;;;4915058;29;20040;-77
2024/04/04 10:15:21;;;;;;;3.42;1.00;;;14.80;71.60;;;;;;4915496;29;20119;-78
2024/04/04 10:17:51;;;;;;;1.95;1.35;;;14.90;71.30;;;;;;4913539;29;20439;-78
2024/04/04 10:20:20;;;;;;;2.10;1.63;;;15.00;71.80;;;;;;4913976;29;20036;-77
2024/04/04 10:22:55;;;;;;;8.32;4.55;;;15.20;71.40;;;;;;4913802;29;20032;-78
2024/04/04 10:25:25;;;;;;;23.98;13.15;;;15.40;69.60;;;;;;4913837;29;20028;-78
2024/04/04 10:27:50;;;;;;;28.48;14.40;;;15.30;67.90;;;;;;4913784;29;20463;-77
2024/04/04 10:30:19;;;;;;;24.20;12.40;;;15.00;67.50;;;;;;4913820;29;20051;-77
2024/04/04 10:32:45;;;;;;;16.27;6.32;;;14.80;68.30;;;;;;4913584;29;20052;-77
2024/04/04 10:35:13;;;;;;;3.75;2.55;;;14.70;68.70;;;;;;4913762;29;20501;-77
2024/04/04 10:37:40;;;;;;;6.07;2.97;;;15.00;69.80;;;;;;4914152;29;20036;-77
2024/04/04 10:40:06;;;;;;;10.55;5.07;;;15.00;67.60;;;;;;4913876;29;20031;-77
2024/04/04 10:42:32;;;;;;;8.80;4.45;;;15.10;68.00;;;;;;4913594;29;20036;-77
2024/04/04 10:44:57;;;;;;;3.50;2.25;;;15.00;67.70;;;;;;4914994;29;20043;-77
2024/04/04 10:47:24;;;;;;;3.60;2.90;;;15.00;68.20;;;;;;4913777;29;20040;-77
2024/04/04 10:49:50;;;;;;;2.33;2.05;;;15.10;69.00;;;;;;4913841;29;20430;-77
2024/04/04 10:52:17;;;;;;;3.10;2.10;;;15.20;68.70;;;;;;4914452;29;20111;-77
2024/04/04 10:54:43;;;;;;;4.93;3.13;;;15.30;68.80;;;;;;4913009;29;20490;-77
2024/04/04 10:57:09;;;;;;;9.35;5.00;;;15.10;67.40;;;;;;4909160;29;20043;-77
2024/04/04 10:59:35;;;;;;;14.88;8.13;;;15.20;67.90;;;;;;4911729;29;20032;-76
2024/04/04 11:02:04;;;;;;;3.22;2.50;;;15.20;68.60;;;;;;4908671;29;20032;-77
2024/04/04 11:04:32;;;;;;;2.10;1.60;;;15.10;68.00;;;;;;4915401;29;20078;-78
2024/04/04 11:06:58;;;;;;;1.92;1.65;;;15.20;69.10;;;;;;4915887;29;20036;-77
2024/04/04 11:09:26;;;;;;;3.00;1.83;;;15.70;69.30;;;;;;4918168;29;20533;-77
2024/04/04 11:11:55;;;;;;;2.08;1.52;;;15.70;66.70;;;;;;4916814;29;20032;-78
2024/04/04 11:14:22;;;;;;;14.05;2.25;;;15.80;68.30;;;;;;4918695;29;20123;-77
2024/04/04 11:16:53;;;;;;;2.50;1.40;;;15.90;67.10;;;;;;4904235;29;20505;-77
2024/04/04 11:19:23;;;;;;;5.95;2.88;;;15.90;67.00;;;;;;4919100;29;20035;-77
2024/04/04 11:21:49;;;;;;;32.65;17.33;;;15.80;65.40;;;;;;4917743;29;20383;-77
2024/04/04 11:24:15;;;;;;;3.53;2.00;;;15.80;65.40;;;;;;4918317;29;20035;-77
2024/04/04 11:26:41;;;;;;;1.63;1.42;;;15.90;67.20;;;;;;4916621;29;20044;-77
2024/04/04 11:29:07;;;;;;;1.63;1.40;;;16.20;66.40;;;;;;4917082;29;20051;-77
2024/04/04 11:31:33;;;;;;;2.78;1.50;;;16.20;65.80;;;;;;4915698;29;20035;-77
2024/04/04 11:33:59;;;;;;;5.28;3.78;;;16.20;65.30;;;;;;4899996;29;20051;-77
2024/04/04 11:36:25;;;;;;;6.47;4.18;;;16.50;66.70;;;;;;4911288;29;20040;-77
2024/04/04 11:38:51;;;;;;;6.40;3.30;;;16.20;63.90;;;;;;4908882;29;20154;-77
2024/04/04 11:41:17;;;;;;;9.93;5.63;;;16.00;63.60;;;;;;4911664;29;20044;-77
2024/04/04 11:43:43;;;;;;;3.65;2.50;;;15.80;63.90;;;;;;4910104;29;20380;-78
2024/04/04 11:46:12;;;;;;;4.45;1.90;;;15.70;65.70;;;;;;4911122;29;20032;-77
2024/04/04 11:48:39;;;;;;;3.10;2.00;;;15.60;66.60;;;;;;4910007;29;20068;-77
2024/04/04 11:51:04;;;;;;;15.75;8.80;;;15.50;66.90;;;;;;4914593;29;20056;-76
2024/04/04 11:53:30;;;;;;;6.35;3.85;;;15.30;66.30;;;;;;4915241;29;20123;-77
2024/04/04 11:55:56;;;;;;;8.27;4.72;;;15.10;67.40;;;;;;4915456;29;20024;-77
2024/04/04 11:58:27;;;;;;;10.18;4.88;;;14.90;67.50;;;;;;4915636;29;20031;-78
2024/04/04 12:00:58;;;;;;;4.75;3.20;;;14.90;68.10;;;;;;4917341;29;20036;-77
2024/04/04 12:03:23;;;;;;;5.82;3.15;;;14.90;68.80;;;;;;4916126;29;20036;-77
2024/04/04 12:05:49;;;;;;;2.95;1.50;;;14.80;68.90;;;;;;4916119;29;20040;-77
2024/04/04 12:08:15;;;;;;;4.93;3.13;;;14.70;68.10;;;;;;4916414;29;20064;-78
2024/04/04 12:10:43;;;;;;;4.43;2.30;;;14.60;68.30;;;;;;4917832;29;20020;-78
2024/04/04 12:13:12;;;;;;;5.30;2.30;;;14.70;69.80;;;;;;4917211;29;20439;-77
2024/04/04 12:15:38;;;;;;;3.15;1.67;;;14.70;69.30;;;;;;4917282;29;20103;-77
2024/04/04 12:20:49;;;;;;;2.67;2.00;;;14.80;69.30;;;;;;4907854;29;20504;-77
2024/04/04 12:23:15;;;;;;;4.93;2.95;;;14.70;68.40;;;;;;4913353;29;20110;-78
2024/04/04 12:25:45;;;;;;;9.02;4.07;;;14.70;68.60;;;;;;4910810;29;20123;-77
2024/04/04 12:28:11;;;;;;;22.33;11.70;;;14.70;68.80;;;;;;4916196;29;20040;-78
2024/04/04 12:30:36;;;;;;;4.70;2.25;;;14.70;70.80;;;;;;4916986;29;20049;-78
2024/04/04 12:33:02;;;;;;;3.85;2.13;;;14.70;71.00;;;;;;4912930;29;20139;-77
2024/04/04 12:35:28;;;;;;;4.43;2.22;;;14.60;70.60;;;;;;4915135;29;20069;-78
2024/04/04 12:37:53;;;;;;;8.50;4.00;;;14.60;70.80;;;;;;4911904;29;20020;-78
2024/04/04 12:40:19;;;;;;;7.32;3.58;;;14.50;71.50;;;;;;4914544;29;20044;-77
2024/04/04 12:42:44;;;;;;;7.30;3.67;;;14.50;72.10;;;;;;4914748;29;20047;-77
2024/04/04 12:45:10;;;;;;;44.65;17.77;;;14.50;71.70;;;;;;4913148;29;20383;-77